sensor_id;sensor_type;location;lat;lon;timestamp;pressure;altitude;pressure_sealevel;temperature;humidity
29941;BME280;16801;53.562;10.038;2023-02-03T00:01:45;101658.28;;;7.94;100.00
29941;BME280;16801;53.562;10.038;2023-02-03T00:05:08;101663.47;;;8.24;100.00
29941;BME280;16801;53.562;10.038;2023-02-03T00:08:31;101662.53;;;7.84;100.00
29941;BME280;16801;53.562;10.038;2023-02-03T00:11:52;101656.44;;;8.08;100.00
29941;BME280;16801;53.562;10.038;2023-02-03T00:15:13;101649.19;;;7.96;100.00
29941;BME280;16801;53.562;10.038;2023-02-03T00:18:34;101639.03;;;8.14;100.00
29941;BME280;16801;53.562;10.038;2023-02-03T00:21:55;101637.19;;;8.29;100.00
29941;BME280;16801;53.562;10.038;2023-02-03T00:25:17;101625.88;;;8.63;100.00
29941;BME280;16801;53.562;10.038;2023-02-03T00:28:40;101635.88;;;8.61;100.00
29941;BME280;16801;53.562;10.038;2023-02-03T00:32:01;101641.91;;;8.90;100.00
29941;BME280;16801;53.562;10.038;2023-02-03T00:35:22;101626.00;;;8.74;100.00
29941;BME280;16801;53.562;10.038;2023-02-03T00:38:43;101616.09;;;9.00;100.00
29941;BME280;16801;53.562;10.038;2023-02-03T00:42:05;101606.34;;;8.99;100.00
29941;BME280;16801;53.562;10.038;2023-02-03T00:45:26;101613.53;;;9.11;100.00
29941;BME280;16801;53.562;10.038;2023-02-03T00:48:47;101597.16;;;9.01;100.00
29941;BME280;16801;53.562;10.038;2023-02-03T00:52:08;101596.00;;;9.18;100.00
29941;BME280;16801;53.562;10.038;2023-02-03T00:55:31;101593.63;;;9.13;100.00
29941;BME280;16801;53.562;10.038;2023-02-03T00:58:53;101583.69;;;9.26;100.00
29941;BME280;16801;53.562;10.038;2023-02-03T01:02:14;101583.03;;;9.35;100.00
29941;BME280;16801;53.562;10.038;2023-02-03T01:05:36;101574.88;;;9.60;100.00
29941;BME280;16801;53.562;10.038;2023-02-03T01:08:57;101574.06;;;9.47;100.00
29941;BME280;16801;53.562;10.038;2023-02-03T01:12:17;101564.63;;;9.42;100.00
29941;BME280;16801;53.562;10.038;2023-02-03T01:15:45;101561.31;;;9.86;100.00
29941;BME280;16801;53.562;10.038;2023-02-03T01:19:07;101545.06;;;10.11;100.00
29941;BME280;16801;53.562;10.038;2023-02-03T01:22:28;101538.72;;;9.99;100.00
29941;BME280;16801;53.562;10.038;2023-02-03T01:25:49;101547.13;;;9.84;100.00
29941;BME280;16801;53.562;10.038;2023-02-03T01:29:10;101516.63;;;10.07;100.00
29941;BME280;16801;53.562;10.038;2023-02-03T01:32:33;101512.25;;;9.93;100.00
29941;BME280;16801;53.562;10.038;2023-02-03T01:35:54;101520.03;;;9.74;100.00
29941;BME280;16801;53.562;10.038;2023-02-03T01:39:15;101494.13;;;9.84;100.00
29941;BME280;16801;53.562;10.038;2023-02-03T01:42:38;101486.31;;;9.92;100.00
29941;BME280;16801;53.562;10.038;2023-02-03T01:46:02;101450.97;;;9.97;100.00
29941;BME280;16801;53.562;10.038;2023-02-03T01:49:28;101460.56;;;9.77;100.00
29941;BME280;16801;53.562;10.038;2023-02-03T01:52:56;101456.34;;;9.97;100.00
29941;BME280;16801;53.562;10.038;2023-02-03T01:56:17;101458.66;;;9.90;100.00
29941;BME280;16801;53.562;10.038;2023-02-03T01:59:39;101463.03;;;9.91;100.00
29941;BME280;16801;53.562;10.038;2023-02-03T02:03:01;101481.06;;;9.67;100.00
29941;BME280;16801;53.562;10.038;2023-02-03T02:06:26;101486.53;;;9.89;100.00
29941;BME280;16801;53.562;10.038;2023-02-03T02:09:47;101470.03;;;9.94;100.00
29941;BME280;16801;53.562;10.038;2023-02-03T02:13:08;101464.19;;;10.00;100.00
29941;BME280;16801;53.562;10.038;2023-02-03T02:16:40;101469.09;;;9.95;100.00
29941;BME280;16801;53.562;10.038;2023-02-03T02:20:28;101475.94;;;10.10;100.00
29941;BME280;16801;53.562;10.038;2023-02-03T02:24:21;101477.50;;;9.90;100.00
29941;BME280;16801;53.562;10.038;2023-02-03T02:28:03;101447.97;;;9.54;100.00
29941;BME280;16801;53.562;10.038;2023-02-03T02:31:48;101446.03;;;9.56;100.00
29941;BME280;16801;53.562;10.038;2023-02-03T02:35:18;101441.25;;;9.83;100.00
29941;BME280;16801;53.562;10.038;2023-02-03T02:38:53;101444.19;;;9.91;100.00
29941;BME280;16801;53.562;10.038;2023-02-03T02:42:23;101436.78;;;9.71;100.00
29941;BME280;16801;53.562;10.038;2023-02-03T02:45:47;101430.53;;;9.71;100.00
29941;BME280;16801;53.562;10.038;2023-02-03T02:49:13;101427.25;;;9.67;100.00
29941;BME280;16801;53.562;10.038;2023-02-03T02:52:39;101430.81;;;9.79;100.00
29941;BME280;16801;53.562;10.038;2023-02-03T02:56:03;101430.38;;;9.96;100.00
29941;BME280;16801;53.562;10.038;2023-02-03T02:59:25;101433.41;;;10.15;100.00
29941;BME280;16801;53.562;10.038;2023-02-03T03:02:45;101412.69;;;9.81;100.00
29941;BME280;16801;53.562;10.038;2023-02-03T03:06:10;101408.56;;;10.33;97.44
29941;BME280;16801;53.562;10.038;2023-02-03T03:09:35;101397.09;;;9.97;98.66
29941;BME280;16801;53.562;10.038;2023-02-03T03:13:01;101396.94;;;9.87;98.76
29941;BME280;16801;53.562;10.038;2023-02-03T03:16:26;101396.06;;;10.21;97.44
29941;BME280;16801;53.562;10.038;2023-02-03T03:19:53;101383.16;;;10.03;97.74
29941;BME280;16801;53.562;10.038;2023-02-03T03:23:19;101378.72;;;9.91;98.40
29941;BME280;16801;53.562;10.038;2023-02-03T03:26:46;101367.47;;;10.08;97.08
29941;BME280;16801;53.562;10.038;2023-02-03T03:30:11;101378.16;;;10.20;96.27
29941;BME280;16801;53.562;10.038;2023-02-03T03:33:35;101368.19;;;10.10;96.13
29941;BME280;16801;53.562;10.038;2023-02-03T03:37:00;101357.81;;;10.05;96.67
29941;BME280;16801;53.562;10.038;2023-02-03T03:40:29;101357.81;;;10.05;96.31
29941;BME280;16801;53.562;10.038;2023-02-03T03:43:55;101348.97;;;9.92;97.23
29941;BME280;16801;53.562;10.038;2023-02-03T03:47:20;101354.22;;;9.94;97.81
29941;BME280;16801;53.562;10.038;2023-02-03T03:50:46;101360.44;;;10.18;96.45
29941;BME280;16801;53.562;10.038;2023-02-03T03:54:12;101364.44;;;10.12;96.55
29941;BME280;16801;53.562;10.038;2023-02-03T03:57:39;101345.19;;;9.95;97.98
29941;BME280;16801;53.562;10.038;2023-02-03T04:01:04;101367.00;;;10.03;98.22
29941;BME280;16801;53.562;10.038;2023-02-03T04:04:26;101362.34;;;10.16;97.40
29941;BME280;16801;53.562;10.038;2023-02-03T04:07:47;101346.69;;;10.21;97.47
29941;BME280;16801;53.562;10.038;2023-02-03T04:11:08;101345.91;;;9.86;100.00
29941;BME280;16801;53.562;10.038;2023-02-03T04:14:32;101336.34;;;9.82;100.00
29941;BME280;16801;53.562;10.038;2023-02-03T04:17:53;101340.41;;;9.98;100.00
29941;BME280;16801;53.562;10.038;2023-02-03T04:21:15;101328.34;;;9.58;100.00
29941;BME280;16801;53.562;10.038;2023-02-03T04:24:36;101321.03;;;9.71;100.00
29941;BME280;16801;53.562;10.038;2023-02-03T04:27:57;101303.19;;;9.92;100.00
29941;BME280;16801;53.562;10.038;2023-02-03T04:31:20;101297.25;;;9.54;100.00
29941;BME280;16801;53.562;10.038;2023-02-03T04:34:40;101294.44;;;9.55;100.00
29941;BME280;16801;53.562;10.038;2023-02-03T04:38:01;101300.47;;;9.59;100.00
29941;BME280;16801;53.562;10.038;2023-02-03T04:41:22;101302.69;;;9.76;100.00
29941;BME280;16801;53.562;10.038;2023-02-03T04:44:43;101328.03;;;9.74;100.00
29941;BME280;16801;53.562;10.038;2023-02-03T04:48:06;101298.16;;;9.65;100.00
29941;BME280;16801;53.562;10.038;2023-02-03T04:51:27;101305.09;;;9.68;100.00
29941;BME280;16801;53.562;10.038;2023-02-03T04:54:47;101304.16;;;9.80;100.00
29941;BME280;16801;53.562;10.038;2023-02-03T04:58:08;101310.91;;;9.86;100.00
29941;BME280;16801;53.562;10.038;2023-02-03T05:01:29;101287.13;;;9.68;100.00
29941;BME280;16801;53.562;10.038;2023-02-03T05:04:51;101283.56;;;9.68;100.00
29941;BME280;16801;53.562;10.038;2023-02-03T05:08:12;101285.78;;;9.85;100.00
29941;BME280;16801;53.562;10.038;2023-02-03T05:11:33;101258.28;;;9.82;100.00
29941;BME280;16801;53.562;10.038;2023-02-03T05:14:54;101268.56;;;9.99;100.00
29941;BME280;16801;53.562;10.038;2023-02-03T05:18:15;101231.94;;;9.63;100.00
29941;BME280;16801;53.562;10.038;2023-02-03T05:21:37;101246.78;;;9.91;100.00
29941;BME280;16801;53.562;10.038;2023-02-03T05:24:58;101226.81;;;9.71;100.00
29941;BME280;16801;53.562;10.038;2023-02-03T05:28:19;101243.09;;;9.70;100.00
29941;BME280;16801;53.562;10.038;2023-02-03T05:31:40;101218.50;;;9.74;100.00
29941;BME280;16801;53.562;10.038;2023-02-03T05:35:59;62712.56;;;-142.52;100.00
29941;BME280;16801;53.562;10.038;2023-02-03T05:40:20;62712.56;;;-142.52;100.00
29941;BME280;16801;53.562;10.038;2023-02-03T05:44:57;62712.56;;;-142.52;100.00
29941;BME280;16801;53.562;10.038;2023-02-03T05:49:17;62712.56;;;-142.52;100.00
29941;BME280;16801;53.562;10.038;2023-02-03T05:53:36;62712.56;;;-142.52;100.00
29941;BME280;16801;53.562;10.038;2023-02-03T05:57:57;62712.56;;;-142.52;100.00
29941;BME280;16801;53.562;10.038;2023-02-03T06:02:17;62712.56;;;-142.52;100.00
29941;BME280;16801;53.562;10.038;2023-02-03T06:06:36;62712.56;;;-142.52;100.00
29941;BME280;16801;53.562;10.038;2023-02-03T06:10:58;62712.56;;;-142.52;100.00
29941;BME280;16801;53.562;10.038;2023-02-03T06:15:19;62712.56;;;-142.52;100.00
29941;BME280;16801;53.562;10.038;2023-02-03T06:19:38;62712.56;;;-142.52;100.00
29941;BME280;16801;53.562;10.038;2023-02-03T06:23:58;62712.56;;;-142.52;100.00
29941;BME280;16801;53.562;10.038;2023-02-03T06:28:17;62712.56;;;-142.52;100.00
29941;BME280;16801;53.562;10.038;2023-02-03T06:32:38;62712.56;;;-142.52;100.00
29941;BME280;16801;53.562;10.038;2023-02-03T06:36:57;62712.56;;;-142.52;100.00
29941;BME280;16801;53.562;10.038;2023-02-03T06:41:16;62712.56;;;-142.52;100.00
29941;BME280;16801;53.562;10.038;2023-02-03T06:45:36;62712.56;;;-142.52;100.00
29941;BME280;16801;53.562;10.038;2023-02-03T06:49:56;62712.56;;;-142.52;100.00
29941;BME280;16801;53.562;10.038;2023-02-03T06:54:16;62712.56;;;-142.52;100.00
29941;BME280;16801;53.562;10.038;2023-02-03T06:58:40;62712.56;;;-142.52;100.00
29941;BME280;16801;53.562;10.038;2023-02-03T07:02:59;62712.56;;;-142.52;100.00
29941;BME280;16801;53.562;10.038;2023-02-03T07:07:21;62712.56;;;-142.52;100.00
29941;BME280;16801;53.562;10.038;2023-02-03T07:11:40;62712.56;;;-142.52;100.00
29941;BME280;16801;53.562;10.038;2023-02-03T07:15:59;62712.56;;;-142.52;100.00
29941;BME280;16801;53.562;10.038;2023-02-03T07:20:19;62712.56;;;-142.52;100.00
29941;BME280;16801;53.562;10.038;2023-02-03T07:24:40;62712.56;;;-142.52;100.00
29941;BME280;16801;53.562;10.038;2023-02-03T07:29:00;62712.56;;;-142.52;100.00
29941;BME280;16801;53.562;10.038;2023-02-03T07:33:19;62712.56;;;-142.52;100.00
29941;BME280;16801;53.562;10.038;2023-02-03T07:37:39;62712.56;;;-142.52;100.00
29941;BME280;16801;53.562;10.038;2023-02-03T07:42:00;62712.56;;;-142.52;100.00
29941;BME280;16801;53.562;10.038;2023-02-03T07:46:20;62712.56;;;-142.52;100.00
29941;BME280;16801;53.562;10.038;2023-02-03T07:50:40;62712.56;;;-142.52;100.00
29941;BME280;16801;53.562;10.038;2023-02-03T07:54:59;62712.56;;;-142.52;100.00
29941;BME280;16801;53.562;10.038;2023-02-03T07:59:20;62712.56;;;-142.52;100.00
29941;BME280;16801;53.562;10.038;2023-02-03T08:03:40;62712.56;;;-142.52;100.00
29941;BME280;16801;53.562;10.038;2023-02-03T08:07:59;62712.56;;;-142.52;100.00
29941;BME280;16801;53.562;10.038;2023-02-03T08:12:19;62712.56;;;-142.52;100.00
29941;BME280;16801;53.562;10.038;2023-02-03T08:16:39;62712.56;;;-142.52;100.00
29941;BME280;16801;53.562;10.038;2023-02-03T08:21:00;62712.56;;;-142.52;100.00
29941;BME280;16801;53.562;10.038;2023-02-03T08:25:21;62712.56;;;-142.52;100.00
29941;BME280;16801;53.562;10.038;2023-02-03T08:29:40;62712.56;;;-142.52;100.00
29941;BME280;16801;53.562;10.038;2023-02-03T08:34:02;62712.56;;;-142.52;100.00
29941;BME280;16801;53.562;10.038;2023-02-03T08:38:22;62712.56;;;-142.52;100.00
29941;BME280;16801;53.562;10.038;2023-02-03T08:42:41;62712.56;;;-142.52;100.00
29941;BME280;16801;53.562;10.038;2023-02-03T08:47:01;62712.56;;;-142.52;100.00
29941;BME280;16801;53.562;10.038;2023-02-03T08:51:21;62712.56;;;-142.52;100.00
29941;BME280;16801;53.562;10.038;2023-02-03T08:55:42;62712.56;;;-142.52;100.00
29941;BME280;16801;53.562;10.038;2023-02-03T09:00:02;62712.56;;;-142.52;100.00
29941;BME280;16801;53.562;10.038;2023-02-03T09:04:22;62712.56;;;-142.52;100.00
29941;BME280;16801;53.562;10.038;2023-02-03T09:08:43;62712.56;;;-142.52;100.00
29941;BME280;16801;53.562;10.038;2023-02-03T09:13:06;62712.56;;;-142.52;100.00
29941;BME280;16801;53.562;10.038;2023-02-03T09:17:26;62712.56;;;-142.52;100.00
29941;BME280;16801;53.562;10.038;2023-02-03T09:21:45;62712.56;;;-142.52;100.00
29941;BME280;16801;53.562;10.038;2023-02-03T09:26:08;62712.56;;;-142.52;100.00
29941;BME280;16801;53.562;10.038;2023-02-03T09:30:27;62712.56;;;-142.52;100.00
29941;BME280;16801;53.562;10.038;2023-02-03T09:34:47;62712.56;;;-142.52;100.00
29941;BME280;16801;53.562;10.038;2023-02-03T09:39:06;62712.56;;;-142.52;100.00
29941;BME280;16801;53.562;10.038;2023-02-03T09:43:31;62712.56;;;-142.52;100.00
29941;BME280;16801;53.562;10.038;2023-02-03T09:47:59;62712.56;;;-142.52;100.00
29941;BME280;16801;53.562;10.038;2023-02-03T09:52:23;62712.56;;;-142.52;100.00
29941;BME280;16801;53.562;10.038;2023-02-03T09:56:44;62712.56;;;-142.52;100.00
29941;BME280;16801;53.562;10.038;2023-02-03T10:01:16;62712.56;;;-142.52;100.00
29941;BME280;16801;53.562;10.038;2023-02-03T10:05:45;62712.56;;;-142.52;100.00
29941;BME280;16801;53.562;10.038;2023-02-03T10:10:14;62712.56;;;-142.52;100.00
29941;BME280;16801;53.562;10.038;2023-02-03T10:14:50;62712.56;;;-142.52;100.00
29941;BME280;16801;53.562;10.038;2023-02-03T10:19:17;62712.56;;;-142.52;100.00
29941;BME280;16801;53.562;10.038;2023-02-03T10:23:40;62712.56;;;-142.52;100.00
29941;BME280;16801;53.562;10.038;2023-02-03T10:28:02;62712.56;;;-142.52;100.00
29941;BME280;16801;53.562;10.038;2023-02-03T10:32:25;62712.56;;;-142.52;100.00
29941;BME280;16801;53.562;10.038;2023-02-03T10:36:52;62712.56;;;-142.52;100.00
29941;BME280;16801;53.562;10.038;2023-02-03T10:41:13;62712.56;;;-142.52;100.00
29941;BME280;16801;53.562;10.038;2023-02-03T10:45:35;62712.56;;;-142.52;100.00
29941;BME280;16801;53.562;10.038;2023-02-03T10:49:56;62712.56;;;-142.52;100.00
29941;BME280;16801;53.562;10.038;2023-02-03T10:54:27;62712.56;;;-142.52;100.00
29941;BME280;16801;53.562;10.038;2023-02-03T10:58:50;62712.56;;;-142.52;100.00
29941;BME280;16801;53.562;10.038;2023-02-03T11:03:20;62712.56;;;-142.52;100.00
29941;BME280;16801;53.562;10.038;2023-02-03T11:07:51;62712.56;;;-142.52;100.00
29941;BME280;16801;53.562;10.038;2023-02-03T11:12:13;62712.56;;;-142.52;100.00
29941;BME280;16801;53.562;10.038;2023-02-03T11:16:33;62712.56;;;-142.52;100.00
29941;BME280;16801;53.562;10.038;2023-02-03T11:20:59;62712.56;;;-142.52;100.00
29941;BME280;16801;53.562;10.038;2023-02-03T11:25:21;62712.56;;;-142.52;100.00
29941;BME280;16801;53.562;10.038;2023-02-03T11:29:46;62712.56;;;-142.52;100.00
29941;BME280;16801;53.562;10.038;2023-02-03T11:34:14;62712.56;;;-142.52;100.00
29941;BME280;16801;53.562;10.038;2023-02-03T11:38:35;62712.56;;;-142.52;100.00
29941;BME280;16801;53.562;10.038;2023-02-03T11:42:59;62712.56;;;-142.52;100.00
29941;BME280;16801;53.562;10.038;2023-02-03T11:47:20;62712.56;;;-142.52;100.00
29941;BME280;16801;53.562;10.038;2023-02-03T11:51:43;62712.56;;;-142.52;100.00
29941;BME280;16801;53.562;10.038;2023-02-03T11:56:19;62712.56;;;-142.52;100.00
29941;BME280;16801;53.562;10.038;2023-02-03T12:00:47;62712.56;;;-142.52;100.00
29941;BME280;16801;53.562;10.038;2023-02-03T12:05:22;62712.56;;;-142.52;100.00
29941;BME280;16801;53.562;10.038;2023-02-03T12:10:01;62712.56;;;-142.52;100.00
29941;BME280;16801;53.562;10.038;2023-02-03T12:14:36;62712.56;;;-142.52;100.00
29941;BME280;16801;53.562;10.038;2023-02-03T12:19:07;62712.56;;;-142.52;100.00
29941;BME280;16801;53.562;10.038;2023-02-03T12:23:40;62712.56;;;-142.52;100.00
29941;BME280;16801;53.562;10.038;2023-02-03T12:28:15;62712.56;;;-142.52;100.00
29941;BME280;16801;53.562;10.038;2023-02-03T12:32:38;62712.56;;;-142.52;100.00
29941;BME280;16801;53.562;10.038;2023-02-03T12:37:03;62712.56;;;-142.52;100.00
29941;BME280;16801;53.562;10.038;2023-02-03T12:41:33;62712.56;;;-142.52;100.00
29941;BME280;16801;53.562;10.038;2023-02-03T12:45:57;62712.56;;;-142.52;100.00
29941;BME280;16801;53.562;10.038;2023-02-03T12:50:26;62712.56;;;-142.52;100.00
29941;BME280;16801;53.562;10.038;2023-02-03T12:54:51;62712.56;;;-142.52;100.00
29941;BME280;16801;53.562;10.038;2023-02-03T12:59:18;62712.56;;;-142.52;100.00
29941;BME280;16801;53.562;10.038;2023-02-03T13:03:44;62712.56;;;-142.52;100.00
29941;BME280;16801;53.562;10.038;2023-02-03T13:08:14;62712.56;;;-142.52;100.00
29941;BME280;16801;53.562;10.038;2023-02-03T13:12:38;62712.56;;;-142.52;100.00
29941;BME280;16801;53.562;10.038;2023-02-03T13:17:05;62712.56;;;-142.52;100.00
29941;BME280;16801;53.562;10.038;2023-02-03T13:21:27;62712.56;;;-142.52;100.00
29941;BME280;16801;53.562;10.038;2023-02-03T13:26:11;62712.56;;;-142.52;100.00
29941;BME280;16801;53.562;10.038;2023-02-03T13:30:46;62712.56;;;-142.52;100.00
29941;BME280;16801;53.562;10.038;2023-02-03T13:35:20;62712.56;;;-142.52;100.00
29941;BME280;16801;53.562;10.038;2023-02-03T13:40:13;62712.56;;;-142.52;100.00
29941;BME280;16801;53.562;10.038;2023-02-03T13:44:36;62712.56;;;-142.52;100.00
29941;BME280;16801;53.562;10.038;2023-02-03T13:49:03;62712.56;;;-142.52;100.00
29941;BME280;16801;53.562;10.038;2023-02-03T13:53:26;62712.56;;;-142.52;100.00
29941;BME280;16801;53.562;10.038;2023-02-03T13:57:51;62712.56;;;-142.52;100.00
29941;BME280;16801;53.562;10.038;2023-02-03T14:02:29;62712.56;;;-142.52;100.00
29941;BME280;16801;53.562;10.038;2023-02-03T14:06:53;62712.56;;;-142.52;100.00
29941;BME280;16801;53.562;10.038;2023-02-03T14:11:36;62712.56;;;-142.52;100.00
29941;BME280;16801;53.562;10.038;2023-02-03T14:16:12;62712.56;;;-142.52;100.00
29941;BME280;16801;53.562;10.038;2023-02-03T14:21:09;62712.56;;;-142.52;100.00
29941;BME280;16801;53.562;10.038;2023-02-03T14:25:32;62712.56;;;-142.52;100.00
29941;BME280;16801;53.562;10.038;2023-02-03T14:30:02;62712.56;;;-142.52;100.00
29941;BME280;16801;53.562;10.038;2023-02-03T14:34:42;62712.56;;;-142.52;100.00
29941;BME280;16801;53.562;10.038;2023-02-03T14:39:05;62712.56;;;-142.52;100.00
29941;BME280;16801;53.562;10.038;2023-02-03T14:44:01;62712.56;;;-142.52;100.00
29941;BME280;16801;53.562;10.038;2023-02-03T14:48:38;62712.56;;;-142.52;100.00
29941;BME280;16801;53.562;10.038;2023-02-03T14:53:14;62712.56;;;-142.52;100.00
29941;BME280;16801;53.562;10.038;2023-02-03T14:57:44;62712.56;;;-142.52;100.00
29941;BME280;16801;53.562;10.038;2023-02-03T15:02:20;62712.56;;;-142.52;100.00
29941;BME280;16801;53.562;10.038;2023-02-03T15:06:44;62712.56;;;-142.52;100.00
29941;BME280;16801;53.562;10.038;2023-02-03T15:11:20;62712.56;;;-142.52;100.00
29941;BME280;16801;53.562;10.038;2023-02-03T15:15:41;62712.56;;;-142.52;100.00
29941;BME280;16801;53.562;10.038;2023-02-03T15:20:19;62712.56;;;-142.52;100.00
29941;BME280;16801;53.562;10.038;2023-02-03T15:24:42;62712.56;;;-142.52;100.00
29941;BME280;16801;53.562;10.038;2023-02-03T15:29:15;62712.56;;;-142.52;100.00
29941;BME280;16801;53.562;10.038;2023-02-03T15:33:40;62712.56;;;-142.52;100.00
29941;BME280;16801;53.562;10.038;2023-02-03T15:38:05;62712.56;;;-142.52;100.00
29941;BME280;16801;53.562;10.038;2023-02-03T15:42:28;62712.56;;;-142.52;100.00
29941;BME280;16801;53.562;10.038;2023-02-03T15:46:55;62712.56;;;-142.52;100.00
29941;BME280;16801;53.562;10.038;2023-02-03T15:51:27;62712.56;;;-142.52;100.00
29941;BME280;16801;53.562;10.038;2023-02-03T15:55:55;62712.56;;;-142.52;100.00
29941;BME280;16801;53.562;10.038;2023-02-03T16:00:23;62712.56;;;-142.52;100.00
29941;BME280;16801;53.562;10.038;2023-02-03T16:04:46;62712.56;;;-142.52;100.00
29941;BME280;16801;53.562;10.038;2023-02-03T16:09:27;62712.56;;;-142.52;100.00
29941;BME280;16801;53.562;10.038;2023-02-03T16:13:48;62712.56;;;-142.52;100.00
29941;BME280;16801;53.562;10.038;2023-02-03T16:18:25;62712.56;;;-142.52;100.00
29941;BME280;16801;53.562;10.038;2023-02-03T16:22:58;62712.56;;;-142.52;100.00
29941;BME280;16801;53.562;10.038;2023-02-03T16:27:30;62712.56;;;-142.52;100.00
29941;BME280;16801;53.562;10.038;2023-02-03T16:31:52;62712.56;;;-142.52;100.00
29941;BME280;16801;53.562;10.038;2023-02-03T16:36:29;62712.56;;;-142.52;100.00
29941;BME280;16801;53.562;10.038;2023-02-03T16:41:11;62712.56;;;-142.52;100.00
29941;BME280;16801;53.562;10.038;2023-02-03T16:45:50;62712.56;;;-142.52;100.00
29941;BME280;16801;53.562;10.038;2023-02-03T16:50:30;62712.56;;;-142.52;100.00
29941;BME280;16801;53.562;10.038;2023-02-03T16:55:11;62712.56;;;-142.52;100.00
29941;BME280;16801;53.562;10.038;2023-02-03T16:59:30;62712.56;;;-142.52;100.00
29941;BME280;16801;53.562;10.038;2023-02-03T17:03:50;62712.56;;;-142.52;100.00
29941;BME280;16801;53.562;10.038;2023-02-03T17:08:11;62712.56;;;-142.52;100.00
29941;BME280;16801;53.562;10.038;2023-02-03T17:12:30;62712.56;;;-142.52;100.00
29941;BME280;16801;53.562;10.038;2023-02-03T17:16:50;62712.56;;;-142.52;100.00
29941;BME280;16801;53.562;10.038;2023-02-03T17:21:11;62712.56;;;-142.52;100.00
29941;BME280;16801;53.562;10.038;2023-02-03T17:25:33;62712.56;;;-142.52;100.00
29941;BME280;16801;53.562;10.038;2023-02-03T17:29:53;62712.56;;;-142.52;100.00
29941;BME280;16801;53.562;10.038;2023-02-03T17:34:12;62712.56;;;-142.52;100.00
29941;BME280;16801;53.562;10.038;2023-02-03T17:38:36;62712.56;;;-142.52;100.00
29941;BME280;16801;53.562;10.038;2023-02-03T17:42:57;62712.56;;;-142.52;100.00
29941;BME280;16801;53.562;10.038;2023-02-03T17:47:17;62712.56;;;-142.52;100.00
29941;BME280;16801;53.562;10.038;2023-02-03T17:51:37;62712.56;;;-142.52;100.00
29941;BME280;16801;53.562;10.038;2023-02-03T17:55:56;62712.56;;;-142.52;100.00
29941;BME280;16801;53.562;10.038;2023-02-03T18:00:17;62712.56;;;-142.52;100.00
29941;BME280;16801;53.562;10.038;2023-02-03T18:04:37;62712.56;;;-142.52;100.00
29941;BME280;16801;53.562;10.038;2023-02-03T18:08:56;62712.56;;;-142.52;100.00
29941;BME280;16801;53.562;10.038;2023-02-03T18:13:18;62712.56;;;-142.52;100.00
29941;BME280;16801;53.562;10.038;2023-02-03T18:17:41;62712.56;;;-142.52;100.00
29941;BME280;16801;53.562;10.038;2023-02-03T18:22:01;62712.56;;;-142.52;100.00
29941;BME280;16801;53.562;10.038;2023-02-03T18:26:21;62712.56;;;-142.52;100.00
29941;BME280;16801;53.562;10.038;2023-02-03T18:30:41;62712.56;;;-142.52;100.00
29941;BME280;16801;53.562;10.038;2023-02-03T18:35:02;62712.56;;;-142.52;100.00
29941;BME280;16801;53.562;10.038;2023-02-03T18:39:23;62712.56;;;-142.52;100.00
29941;BME280;16801;53.562;10.038;2023-02-03T18:43:43;62712.56;;;-142.52;100.00
29941;BME280;16801;53.562;10.038;2023-02-03T18:48:02;62712.56;;;-142.52;100.00
29941;BME280;16801;53.562;10.038;2023-02-03T18:52:24;62712.56;;;-142.52;100.00
29941;BME280;16801;53.562;10.038;2023-02-03T18:56:43;62712.56;;;-142.52;100.00
29941;BME280;16801;53.562;10.038;2023-02-03T19:01:05;62712.56;;;-142.52;100.00
29941;BME280;16801;53.562;10.038;2023-02-03T19:05:24;62712.56;;;-142.52;100.00
29941;BME280;16801;53.562;10.038;2023-02-03T19:09:45;62712.56;;;-142.52;100.00
29941;BME280;16801;53.562;10.038;2023-02-03T19:14:05;62712.56;;;-142.52;100.00
29941;BME280;16801;53.562;10.038;2023-02-03T19:18:24;62712.56;;;-142.52;100.00
29941;BME280;16801;53.562;10.038;2023-02-03T19:22:44;62712.56;;;-142.52;100.00
29941;BME280;16801;53.562;10.038;2023-02-03T19:27:05;62712.56;;;-142.52;100.00
29941;BME280;16801;53.562;10.038;2023-02-03T19:31:24;62712.56;;;-142.52;100.00
29941;BME280;16801;53.562;10.038;2023-02-03T19:35:44;62712.56;;;-142.52;100.00
29941;BME280;16801;53.562;10.038;2023-02-03T19:40:08;62712.56;;;-142.52;100.00
29941;BME280;16801;53.562;10.038;2023-02-03T19:44:29;62712.56;;;-142.52;100.00
29941;BME280;16801;53.562;10.038;2023-02-03T19:48:48;62712.56;;;-142.52;100.00
29941;BME280;16801;53.562;10.038;2023-02-03T19:53:08;62712.56;;;-142.52;100.00
29941;BME280;16801;53.562;10.038;2023-02-03T19:57:27;62712.56;;;-142.52;100.00
29941;BME280;16801;53.562;10.038;2023-02-03T20:01:48;62712.56;;;-142.52;100.00
29941;BME280;16801;53.562;10.038;2023-02-03T20:06:07;62712.56;;;-142.52;100.00
29941;BME280;16801;53.562;10.038;2023-02-03T20:10:27;62712.56;;;-142.52;100.00
29941;BME280;16801;53.562;10.038;2023-02-03T20:14:46;62712.56;;;-142.52;100.00
29941;BME280;16801;53.562;10.038;2023-02-03T20:19:07;62712.56;;;-142.52;100.00
29941;BME280;16801;53.562;10.038;2023-02-03T20:23:26;62712.56;;;-142.52;100.00
29941;BME280;16801;53.562;10.038;2023-02-03T20:27:46;62712.56;;;-142.52;100.00
29941;BME280;16801;53.562;10.038;2023-02-03T20:32:06;62712.56;;;-142.52;100.00
29941;BME280;16801;53.562;10.038;2023-02-03T20:36:27;62712.56;;;-142.52;100.00
29941;BME280;16801;53.562;10.038;2023-02-03T20:40:47;62712.56;;;-142.52;100.00